createdAt,value
2018-02-25T00:00:27.594Z,20.97
2018-02-25T00:02:54.949Z,20.98
2018-02-25T00:05:22.288Z,20.91
2018-02-25T00:07:49.636Z,20.96
2018-02-25T00:10:16.985Z,20.74
2018-02-25T00:12:44.355Z,20.79
2018-02-25T00:15:11.772Z,20.94
2018-02-25T00:17:39.123Z,20.81
2018-02-25T00:20:06.472Z,20.94
2018-02-25T00:22:33.812Z,20.88
2018-02-25T00:25:01.150Z,20.76
2018-02-25T00:27:28.494Z,20.94
2018-02-25T00:29:55.864Z,20.90
2018-02-25T00:32:23.197Z,20.86
2018-02-25T00:34:50.537Z,20.82
2018-02-25T00:37:17.932Z,20.88
2018-02-25T00:39:45.269Z,20.81
2018-02-25T00:42:12.614Z,20.84
2018-02-25T00:44:40.006Z,20.93
2018-02-25T00:47:07.342Z,20.68
2018-02-25T00:49:34.690Z,20.83
2018-02-25T00:52:02.031Z,20.84
2018-02-25T00:54:29.379Z,20.80
2018-02-25T00:56:56.731Z,20.85
2018-02-25T00:59:24.072Z,20.83
2018-02-25T01:01:51.447Z,20.58
2018-02-25T01:04:18.783Z,20.69
2018-02-25T01:06:46.171Z,20.70
2018-02-25T01:09:13.510Z,20.65
2018-02-25T01:11:41.607Z,20.81
2018-02-25T01:14:08.951Z,20.82
2018-02-25T01:16:36.354Z,20.69
2018-02-25T01:19:03.744Z,20.76
2018-02-25T01:21:31.127Z,20.77
2018-02-25T01:23:58.467Z,20.82
2018-02-25T01:26:25.847Z,20.80
2018-02-25T01:28:53.230Z,20.69
2018-02-25T01:31:20.578Z,20.79
2018-02-25T01:33:47.927Z,20.67
2018-02-25T01:36:15.280Z,20.66
2018-02-25T01:38:42.679Z,20.71
2018-02-25T01:41:10.013Z,20.60
2018-02-25T01:43:37.395Z,20.73
2018-02-25T01:46:04.736Z,20.71
2018-02-25T01:48:32.091Z,20.70
2018-02-25T01:50:59.480Z,20.65
2018-02-25T01:53:26.879Z,20.53
2018-02-25T01:55:54.227Z,20.76
2018-02-25T01:58:21.590Z,20.66
2018-02-25T02:00:48.999Z,20.71
2018-02-25T02:03:16.343Z,20.71
2018-02-25T02:05:43.689Z,20.70
2018-02-25T02:08:11.022Z,20.68
2018-02-25T02:10:38.383Z,20.65
2018-02-25T02:13:05.718Z,20.55
2018-02-25T02:15:33.074Z,20.72
2018-02-25T02:18:00.454Z,20.57
2018-02-25T02:20:27.847Z,20.66
2018-02-25T02:22:55.197Z,20.70
2018-02-25T02:25:22.544Z,20.67
2018-02-25T02:27:49.885Z,20.79
2018-02-25T02:30:17.235Z,20.62
2018-02-25T02:32:44.570Z,20.65
2018-02-25T02:35:11.922Z,20.67
2018-02-25T02:37:39.268Z,20.66
2018-02-25T02:40:06.658Z,20.69
2018-02-25T02:42:34.002Z,20.69
2018-02-25T02:45:01.362Z,20.51
2018-02-25T02:47:28.745Z,20.68
2018-02-25T02:49:56.124Z,20.71
2018-02-25T02:52:23.475Z,20.65
2018-02-25T02:54:50.876Z,20.70
2018-02-25T02:57:18.237Z,20.70
2018-02-25T02:59:45.615Z,20.65
2018-02-25T03:02:12.967Z,20.71
2018-02-25T03:04:40.355Z,20.72
2018-02-25T03:07:07.737Z,20.69
2018-02-25T03:09:35.098Z,20.70
2018-02-25T03:12:02.470Z,20.65
2018-02-25T03:14:29.819Z,20.68
2018-02-25T03:16:57.166Z,20.74
2018-02-25T03:19:24.549Z,20.73
2018-02-25T03:21:51.952Z,20.74
2018-02-25T03:24:19.290Z,20.71
2018-02-25T03:26:46.669Z,20.72
2018-02-25T03:29:14.025Z,20.73
2018-02-25T03:31:41.362Z,20.63
2018-02-25T03:34:08.775Z,20.68
2018-02-25T03:36:36.150Z,20.75
2018-02-25T03:39:03.491Z,20.76
2018-02-25T03:41:30.882Z,20.64
2018-02-25T03:43:58.245Z,20.66
2018-02-25T03:46:25.594Z,20.71
2018-02-25T03:48:52.952Z,20.71
2018-02-25T03:51:20.291Z,20.78
2018-02-25T03:53:47.634Z,20.71
2018-02-25T03:56:15.018Z,20.65
2018-02-25T03:58:42.360Z,20.67
2018-02-25T04:01:09.699Z,20.69
2018-02-25T04:03:37.200Z,20.74
2018-02-25T04:06:04.543Z,20.65
2018-02-25T04:08:31.879Z,20.71
2018-02-25T04:10:59.316Z,20.75
2018-02-25T04:13:26.667Z,20.67
2018-02-25T04:15:54.048Z,20.63
2018-02-25T04:18:21.454Z,20.73
2018-02-25T04:20:48.798Z,20.60
2018-02-25T04:23:16.144Z,20.71
2018-02-25T04:25:43.536Z,20.67
2018-02-25T04:28:10.874Z,20.65
2018-02-25T04:30:38.255Z,20.65
2018-02-25T04:33:05.603Z,20.72
2018-02-25T04:35:32.949Z,20.63
2018-02-25T04:38:00.285Z,20.69
2018-02-25T04:40:27.662Z,20.72
2018-02-25T04:42:55.045Z,20.66
2018-02-25T04:45:22.408Z,20.60
2018-02-25T04:47:49.791Z,20.61
2018-02-25T04:50:17.139Z,20.62
2018-02-25T04:52:44.496Z,20.66
2018-02-25T04:55:11.883Z,20.64
2018-02-25T04:57:39.231Z,20.57
2018-02-25T05:00:06.644Z,20.68
2018-02-25T05:02:34.019Z,20.67
2018-02-25T05:05:01.367Z,20.67
2018-02-25T05:07:28.799Z,20.68
2018-02-25T05:09:56.157Z,20.63
2018-02-25T05:12:23.598Z,20.63
2018-02-25T05:14:50.931Z,20.71
2018-02-25T05:17:18.323Z,20.71
2018-02-25T05:19:45.688Z,20.63
2018-02-25T05:22:13.026Z,20.57
2018-02-25T05:24:40.374Z,20.34
2018-02-25T05:27:07.781Z,20.71
2018-02-25T05:29:35.150Z,20.73
2018-02-25T05:32:02.500Z,20.72
2018-02-25T05:34:29.864Z,20.67
2018-02-25T05:36:57.213Z,20.68
2018-02-25T05:39:24.604Z,20.69
2018-02-25T05:41:51.951Z,20.44
2018-02-25T05:44:19.339Z,20.73
2018-02-25T05:46:46.694Z,20.60
2018-02-25T05:49:14.089Z,20.70
2018-02-25T05:51:41.456Z,20.65
2018-02-25T05:54:08.816Z,20.69
2018-02-25T05:56:36.177Z,20.69
2018-02-25T05:59:03.514Z,20.62
2018-02-25T06:01:30.887Z,20.50
2018-02-25T06:03:58.283Z,20.66
2018-02-25T06:06:25.663Z,20.67
2018-02-25T06:08:53.019Z,20.62
2018-02-25T06:11:20.361Z,20.67
2018-02-25T06:13:47.767Z,20.69
2018-02-25T06:16:15.150Z,20.69
2018-02-25T06:18:42.542Z,20.71
2018-02-25T06:21:09.959Z,20.69
2018-02-25T06:23:37.298Z,20.65
2018-02-25T06:26:04.652Z,20.70
2018-02-25T06:28:31.995Z,20.72
2018-02-25T06:30:59.387Z,20.59
2018-02-25T06:36:00.233Z,20.66
2018-02-25T06:38:27.595Z,20.56
2018-02-25T06:40:54.983Z,20.68
2018-02-25T06:43:22.362Z,20.55
2018-02-25T06:45:49.823Z,20.71
2018-02-25T06:48:17.166Z,20.67
2018-02-25T06:50:44.523Z,20.68
2018-02-25T06:53:11.927Z,20.72
2018-02-25T06:55:39.334Z,20.76
2018-02-25T06:58:06.713Z,20.64
2018-02-25T07:00:34.098Z,20.77
2018-02-25T07:03:01.451Z,20.74
2018-02-25T07:05:28.904Z,20.75
2018-02-25T07:07:56.284Z,20.71
2018-02-25T07:10:23.654Z,20.69
2018-02-25T07:12:50.997Z,20.63
2018-02-25T07:15:18.348Z,20.72
2018-02-25T07:17:45.691Z,20.69
2018-02-25T07:20:13.060Z,20.65
2018-02-25T07:22:40.415Z,20.67
2018-02-25T07:25:07.797Z,20.67
2018-02-25T07:27:35.200Z,20.67
2018-02-25T07:30:02.552Z,20.78
2018-02-25T07:32:29.895Z,20.72
2018-02-25T07:34:57.250Z,20.65
2018-02-25T07:37:24.642Z,20.75
2018-02-25T07:39:51.986Z,20.79
2018-02-25T07:42:19.414Z,20.70
2018-02-25T07:44:46.756Z,20.76
2018-02-25T07:47:14.100Z,20.77
2018-02-25T07:49:41.441Z,20.75
2018-02-25T07:52:08.810Z,20.76
2018-02-25T07:54:36.231Z,20.77
2018-02-25T07:57:03.603Z,20.76
2018-02-25T07:59:30.979Z,20.68
2018-02-25T08:01:58.324Z,20.77
2018-02-25T08:04:25.714Z,20.77
2018-02-25T08:06:53.059Z,20.81
2018-02-25T08:09:20.407Z,20.78
2018-02-25T08:11:47.859Z,20.80
2018-02-25T08:14:15.231Z,20.76
2018-02-25T08:16:42.577Z,20.73
2018-02-25T08:19:09.989Z,20.83
2018-02-25T08:21:37.338Z,20.83
2018-02-25T08:24:04.682Z,20.85
2018-02-25T08:26:32.027Z,20.87
2018-02-25T08:28:59.408Z,20.81
2018-02-25T08:31:26.827Z,20.82
2018-02-25T08:33:54.174Z,20.84
2018-02-25T08:36:21.514Z,20.87
2018-02-25T08:38:48.865Z,20.65
2018-02-25T08:41:16.226Z,20.94
2018-02-25T08:43:43.583Z,20.84
2018-02-25T08:46:10.972Z,20.81
2018-02-25T08:48:38.343Z,20.91
2018-02-25T08:51:05.687Z,20.91
2018-02-25T08:53:33.093Z,20.91
2018-02-25T08:56:00.438Z,20.94
2018-02-25T08:58:27.778Z,20.92
2018-02-25T09:00:55.226Z,20.95
2018-02-25T09:03:22.567Z,20.95
2018-02-25T09:05:49.950Z,20.99
2018-02-25T09:08:17.288Z,20.88
2018-02-25T09:10:44.675Z,20.97
2018-02-25T09:13:12.033Z,21.01
2018-02-25T09:15:39.426Z,20.97
2018-02-25T09:18:06.783Z,21.01
2018-02-25T09:20:34.150Z,21.02
2018-02-25T09:23:01.607Z,20.98
2018-02-25T09:25:28.964Z,21.06
2018-02-25T09:27:58.661Z,21.04
2018-02-25T09:30:26.493Z,21.05
2018-02-25T09:32:53.859Z,21.05
2018-02-25T09:35:21.195Z,21.04
2018-02-25T09:37:48.548Z,21.08
2018-02-25T09:40:15.891Z,21.09
2018-02-25T09:42:43.238Z,21.04
2018-02-25T09:45:10.586Z,21.06
2018-02-25T09:47:37.943Z,21.07
2018-02-25T09:50:05.289Z,21.04
2018-02-25T09:52:32.633Z,21.06
2018-02-25T09:55:00.041Z,21.07
2018-02-25T09:57:27.386Z,21.05
2018-02-25T09:59:54.728Z,21.10
2018-02-25T10:02:22.072Z,21.11
2018-02-25T10:04:49.420Z,21.09
2018-02-25T10:07:16.820Z,20.94
2018-02-25T10:09:44.170Z,21.15
2018-02-25T10:12:11.514Z,21.07
2018-02-25T10:14:38.894Z,21.11
2018-02-25T10:17:06.240Z,21.11
2018-02-25T10:19:33.580Z,21.16
2018-02-25T10:22:01.042Z,21.11
2018-02-25T10:24:28.362Z,21.13
2018-02-25T10:26:55.827Z,21.08
2018-02-25T10:29:23.188Z,21.07
2018-02-25T10:31:50.590Z,21.11
2018-02-25T10:34:17.932Z,21.15
2018-02-25T10:36:45.273Z,21.17
2018-02-25T10:39:12.646Z,21.02
2018-02-25T10:41:40.051Z,21.10
2018-02-25T10:44:07.421Z,21.17
2018-02-25T10:46:34.766Z,21.04
2018-02-25T10:49:02.133Z,20.90
2018-02-25T10:51:29.488Z,21.13
2018-02-25T10:53:56.832Z,21.17
2018-02-25T10:56:24.213Z,21.11
2018-02-25T10:58:51.561Z,21.11
2018-02-25T11:01:18.948Z,21.15
2018-02-25T11:03:46.294Z,21.16
2018-02-25T11:06:13.633Z,21.08
2018-02-25T11:08:40.983Z,21.11
2018-02-25T11:11:08.338Z,21.19
2018-02-25T11:13:35.673Z,21.20
2018-02-25T11:16:03.054Z,21.18
2018-02-25T11:18:30.444Z,21.15
2018-02-25T11:20:57.799Z,21.19
2018-02-25T11:23:25.176Z,21.22
2018-02-25T11:25:52.524Z,21.25
2018-02-25T11:28:19.921Z,21.12
2018-02-25T11:30:47.292Z,21.17
2018-02-25T11:33:14.698Z,21.20
2018-02-25T11:35:43.051Z,21.12
2018-02-25T11:38:10.434Z,21.17
2018-02-25T11:40:37.789Z,21.23
2018-02-25T11:43:05.163Z,21.22
2018-02-25T11:45:32.600Z,21.22
2018-02-25T11:47:59.976Z,21.26
2018-02-25T11:50:27.335Z,21.22
2018-02-25T11:52:54.791Z,21.25
2018-02-25T11:55:22.177Z,21.20
2018-02-25T11:57:49.557Z,21.20
2018-02-25T12:00:16.912Z,21.25
2018-02-25T12:02:44.317Z,21.25
2018-02-25T12:05:11.668Z,21.26
2018-02-25T12:07:39.024Z,21.16
2018-02-25T12:10:06.453Z,21.23
2018-02-25T12:12:33.804Z,21.23
2018-02-25T12:15:01.202Z,21.27
2018-02-25T12:17:28.564Z,21.26
2018-02-25T12:19:55.962Z,21.26
2018-02-25T12:22:23.352Z,21.27
2018-02-25T12:24:50.698Z,21.25
2018-02-25T12:27:18.043Z,21.17
2018-02-25T12:29:45.391Z,21.26
2018-02-25T12:32:12.803Z,21.09
2018-02-25T12:34:40.152Z,21.20
2018-02-25T12:37:07.544Z,21.29
2018-02-25T12:39:34.870Z,21.16
2018-02-25T12:42:02.259Z,21.18
2018-02-25T12:44:29.716Z,21.19
2018-02-25T12:46:57.064Z,21.18
2018-02-25T12:49:24.405Z,21.17
2018-02-25T12:51:51.743Z,21.10
2018-02-25T12:54:19.112Z,21.17
2018-02-25T12:56:46.533Z,21.18
2018-02-25T12:59:13.898Z,21.09
2018-02-25T13:01:41.276Z,21.22
2018-02-25T13:04:08.637Z,21.18
2018-02-25T13:06:35.990Z,21.17
2018-02-25T13:09:03.335Z,21.17
2018-02-25T13:11:30.730Z,21.11
2018-02-25T13:13:58.074Z,21.19
2018-02-25T13:16:25.458Z,21.10
2018-02-25T13:18:52.848Z,21.22
2018-02-25T13:21:20.231Z,21.10
2018-02-25T13:23:47.620Z,21.15
2018-02-25T13:26:14.969Z,21.11
2018-02-25T13:28:42.319Z,21.15
2018-02-25T13:31:09.714Z,21.16
2018-02-25T13:33:37.083Z,21.08
2018-02-25T13:36:04.478Z,21.14
2018-02-25T13:38:31.882Z,21.13
2018-02-25T13:40:59.255Z,21.08
2018-02-25T13:43:26.610Z,21.08
2018-02-25T13:45:53.984Z,21.16
2018-02-25T13:48:21.358Z,21.00
2018-02-25T13:50:48.747Z,21.09
2018-02-25T13:53:16.086Z,21.12
2018-02-25T13:55:43.502Z,20.98
2018-02-25T13:58:10.859Z,21.08
2018-02-25T14:00:38.218Z,21.06
2018-02-25T14:03:05.635Z,21.12
2018-02-25T14:05:33.021Z,21.11
2018-02-25T14:08:00.375Z,21.01
2018-02-25T14:10:27.732Z,21.06
2018-02-25T14:12:55.083Z,21.07
2018-02-25T14:15:22.532Z,20.87
2018-02-25T14:17:49.920Z,20.95
2018-02-25T14:20:17.301Z,21.03
2018-02-25T14:22:44.638Z,21.02
2018-02-25T14:25:12.066Z,20.95
2018-02-25T14:27:39.435Z,20.98
2018-02-25T14:30:06.780Z,20.94
2018-02-25T14:32:34.192Z,21.00
2018-02-25T14:35:01.540Z,20.97
2018-02-25T14:37:28.953Z,21.01
2018-02-25T14:39:56.329Z,20.97
2018-02-25T14:42:23.805Z,20.91
2018-02-25T14:44:51.149Z,20.95
2018-02-25T14:47:18.506Z,20.99
2018-02-25T14:49:45.907Z,20.92
2018-02-25T14:52:13.252Z,20.95
2018-02-25T14:54:40.612Z,20.88
2018-02-25T14:57:07.981Z,20.97
2018-02-25T14:59:35.321Z,20.94
2018-02-25T15:02:02.667Z,20.97
2018-02-25T15:04:30.015Z,20.94
2018-02-25T15:06:57.375Z,20.95
2018-02-25T15:09:24.714Z,20.94
2018-02-25T15:11:52.086Z,20.87
2018-02-25T15:14:19.450Z,20.92
2018-02-25T15:16:46.860Z,20.89
2018-02-25T15:19:14.202Z,20.94
2018-02-25T15:21:41.550Z,20.99
2018-02-25T15:24:08.901Z,20.88
2018-02-25T15:26:36.273Z,20.88
2018-02-25T15:29:03.736Z,20.82
2018-02-25T15:31:31.083Z,20.88
2018-02-25T15:33:58.422Z,20.88
2018-02-25T15:36:25.802Z,20.91
2018-02-25T15:38:53.145Z,20.90
2018-02-25T15:41:20.494Z,20.84
2018-02-25T15:43:47.842Z,20.80
2018-02-25T15:46:15.270Z,20.90
2018-02-25T15:48:42.624Z,20.82
2018-02-25T15:51:10.018Z,20.89
2018-02-25T15:53:37.367Z,20.92
2018-02-25T15:56:04.758Z,20.85
2018-02-25T15:58:32.110Z,20.68
2018-02-25T16:00:59.504Z,20.78
2018-02-25T16:03:26.901Z,20.76
2018-02-25T16:05:54.247Z,20.72
2018-02-25T16:08:21.602Z,20.84
2018-02-25T16:10:48.944Z,20.80
2018-02-25T16:13:16.274Z,20.79
2018-02-25T16:15:43.622Z,20.81
2018-02-25T16:18:11.011Z,20.77
2018-02-25T16:20:38.375Z,20.80
2018-02-25T16:23:05.740Z,20.83
2018-02-25T16:25:33.157Z,20.73
2018-02-25T16:28:00.539Z,20.81
2018-02-25T16:30:27.883Z,20.77
2018-02-25T16:32:55.270Z,20.73
2018-02-25T16:35:22.614Z,20.76
2018-02-25T16:37:49.970Z,20.71
2018-02-25T16:40:17.354Z,20.75
2018-02-25T16:42:44.685Z,20.62
2018-02-25T16:45:12.033Z,20.75
2018-02-25T16:47:39.418Z,20.73
2018-02-25T16:50:06.757Z,20.58
2018-02-25T16:52:34.105Z,20.74
2018-02-25T16:55:01.450Z,20.71
2018-02-25T16:57:28.846Z,20.72
2018-02-25T16:59:56.195Z,20.63
2018-02-25T17:02:23.575Z,20.66
2018-02-25T17:04:50.916Z,20.69
2018-02-25T17:07:18.263Z,20.60
2018-02-25T17:09:45.677Z,20.69
2018-02-25T17:12:12.986Z,20.67
2018-02-25T17:14:40.385Z,20.63
2018-02-25T17:17:07.726Z,20.58
2018-02-25T17:19:35.066Z,20.66
2018-02-25T17:22:02.414Z,20.63
2018-02-25T17:24:29.747Z,20.66
2018-02-25T17:26:57.123Z,20.64
2018-02-25T17:29:24.473Z,20.63
2018-02-25T17:31:51.828Z,20.63
2018-02-25T17:34:19.207Z,20.54
2018-02-25T17:36:46.584Z,20.59
2018-02-25T17:39:13.920Z,20.62
2018-02-25T17:41:41.304Z,20.60
2018-02-25T17:44:08.697Z,20.58
2018-02-25T17:46:36.098Z,20.57
2018-02-25T17:49:03.403Z,20.58
2018-02-25T17:51:30.806Z,20.50
2018-02-25T17:53:58.147Z,20.63
2018-02-25T17:56:25.488Z,20.55
2018-02-25T17:58:52.874Z,20.47
2018-02-25T18:01:20.206Z,20.53
2018-02-25T18:03:47.582Z,20.54
2018-02-25T18:06:14.966Z,20.54
2018-02-25T18:08:42.302Z,20.54
2018-02-25T18:11:09.642Z,20.59
2018-02-25T18:13:36.996Z,20.60
2018-02-25T18:16:04.381Z,20.54
2018-02-25T18:18:31.729Z,20.56
2018-02-25T18:20:59.062Z,20.58
2018-02-25T18:23:26.408Z,20.55
2018-02-25T18:25:53.747Z,20.55
2018-02-25T18:28:21.095Z,20.50
2018-02-25T18:30:48.491Z,20.55
2018-02-25T18:33:15.875Z,20.44
2018-02-25T18:35:43.259Z,20.59
2018-02-25T18:38:10.607Z,20.48
2018-02-25T18:40:37.944Z,20.43
2018-02-25T18:43:05.288Z,20.58
2018-02-25T18:45:32.684Z,20.47
2018-02-25T18:48:00.035Z,20.44
2018-02-25T18:50:27.401Z,20.44
2018-02-25T18:52:54.797Z,20.43
2018-02-25T18:55:22.146Z,20.49
2018-02-25T18:57:49.551Z,20.41
2018-02-25T19:00:16.950Z,20.50
2018-02-25T19:02:44.299Z,20.48
2018-02-25T19:05:11.681Z,20.44
2018-02-25T19:07:39.050Z,20.48
2018-02-25T19:10:06.392Z,20.42
2018-02-25T19:12:33.778Z,20.44
2018-02-25T19:15:01.132Z,20.43
2018-02-25T19:17:28.478Z,20.41
2018-02-25T19:19:55.815Z,20.41
2018-02-25T19:22:23.169Z,20.43
2018-02-25T19:24:50.514Z,20.47
2018-02-25T19:27:17.941Z,20.45
2018-02-25T19:29:45.288Z,20.37
2018-02-25T19:32:12.639Z,20.37
2018-02-25T19:34:40.014Z,20.40
2018-02-25T19:37:07.359Z,20.43
2018-02-25T19:39:34.750Z,20.32
2018-02-25T19:42:02.131Z,20.38
2018-02-25T19:44:29.495Z,20.40
2018-02-25T19:46:56.879Z,20.43
2018-02-25T19:49:24.224Z,20.41
2018-02-25T19:51:51.616Z,20.36
2018-02-25T19:54:18.967Z,20.30
2018-02-25T19:56:46.346Z,20.37
2018-02-25T19:59:13.735Z,20.29
2018-02-25T20:01:41.076Z,20.43
2018-02-25T20:04:08.461Z,20.25
2018-02-25T20:06:35.846Z,20.32
2018-02-25T20:09:03.274Z,20.35
2018-02-25T20:11:30.681Z,20.40
2018-02-25T20:13:58.087Z,20.37
2018-02-25T20:16:25.500Z,20.42
2018-02-25T20:18:52.846Z,20.32
2018-02-25T20:21:20.201Z,20.35
2018-02-25T20:23:47.542Z,20.36
2018-02-25T20:26:14.925Z,20.28
2018-02-25T20:28:42.306Z,20.31
2018-02-25T20:31:09.647Z,20.35
2018-02-25T20:33:37.032Z,20.34
2018-02-25T20:36:04.388Z,20.34
2018-02-25T20:38:31.785Z,20.29
2018-02-25T20:40:59.168Z,20.30
2018-02-25T20:43:26.561Z,20.32
2018-02-25T20:45:53.922Z,20.37
2018-02-25T20:48:21.309Z,20.36
2018-02-25T20:50:48.654Z,20.39
2018-02-25T20:53:16.059Z,20.33
2018-02-25T20:55:43.415Z,20.29
2018-02-25T20:58:10.764Z,20.31
2018-02-25T21:00:38.113Z,20.31
2018-02-25T21:03:05.514Z,20.36
2018-02-25T21:05:32.864Z,20.29
2018-02-25T21:08:00.198Z,20.39
2018-02-25T21:10:27.538Z,20.30
2018-02-25T21:12:54.944Z,20.27
2018-02-25T21:15:22.332Z,20.34
2018-02-25T21:17:49.714Z,20.34
2018-02-25T21:20:17.058Z,20.29
2018-02-25T21:22:44.444Z,20.36
2018-02-25T21:25:11.794Z,20.29
2018-02-25T21:27:39.173Z,20.17
2018-02-25T21:30:06.531Z,20.35
2018-02-25T21:32:33.979Z,20.31
2018-02-25T21:35:01.382Z,20.32
2018-02-25T21:37:28.722Z,20.25
2018-02-25T21:39:56.114Z,20.27
2018-02-25T21:42:23.487Z,20.27
2018-02-25T21:44:50.862Z,20.27
2018-02-25T21:47:18.251Z,20.34
2018-02-25T21:49:45.606Z,20.35
2018-02-25T21:52:12.954Z,20.23
2018-02-25T21:54:40.370Z,20.30
2018-02-25T21:57:07.745Z,20.23
2018-02-25T21:59:35.134Z,20.24
2018-02-25T22:02:02.517Z,20.26
2018-02-25T22:04:29.899Z,20.21
2018-02-25T22:06:57.237Z,20.29
2018-02-25T22:09:24.825Z,20.34
2018-02-25T22:11:52.008Z,20.29
2018-02-25T22:14:19.415Z,20.25
2018-02-25T22:16:46.768Z,20.27
2018-02-25T22:19:14.139Z,20.30
2018-02-25T22:21:41.538Z,20.29
2018-02-25T22:24:08.929Z,20.23
2018-02-25T22:26:36.276Z,20.26
2018-02-25T22:29:03.618Z,20.29
2018-02-25T22:31:30.966Z,20.27
2018-02-25T22:33:58.305Z,20.27
2018-02-25T22:36:25.705Z,20.24
2018-02-25T22:38:53.067Z,20.23
2018-02-25T22:41:20.407Z,20.16
2018-02-25T22:43:47.788Z,20.14
2018-02-25T22:46:15.131Z,20.15
2018-02-25T22:48:42.523Z,20.18
2018-02-25T22:51:09.893Z,20.19
2018-02-25T22:53:37.268Z,20.24
2018-02-25T22:56:04.658Z,20.28
2018-02-25T22:58:32.058Z,20.23
2018-02-25T23:00:59.421Z,20.24
2018-02-25T23:03:26.767Z,20.27
2018-02-25T23:05:54.128Z,20.15
2018-02-25T23:08:22.328Z,20.16
2018-02-25T23:10:49.685Z,20.20
2018-02-25T23:13:17.027Z,20.25
2018-02-25T23:15:44.410Z,20.21
2018-02-25T23:18:11.808Z,20.19
2018-02-25T23:20:39.149Z,20.21
2018-02-25T23:23:06.502Z,20.21
2018-02-25T23:25:33.873Z,20.13
2018-02-25T23:28:01.218Z,20.19
2018-02-25T23:30:28.570Z,20.23
2018-02-25T23:32:55.958Z,20.21
2018-02-25T23:35:23.307Z,20.14
2018-02-25T23:37:50.653Z,20.15
2018-02-25T23:40:17.991Z,20.11
2018-02-25T23:42:45.332Z,20.13
2018-02-25T23:45:12.711Z,20.11
2018-02-25T23:47:40.091Z,20.19
2018-02-25T23:50:07.487Z,20.18
2018-02-25T23:52:34.873Z,20.16
2018-02-25T23:55:02.222Z,20.15
2018-02-25T23:57:29.570Z,20.12
2018-02-25T23:59:56.947Z,20.18
